WetterOnline ( https://www.wetteronline.de )

Wetter aktuell Kraichgau

Aktuelles Wetter: Waibstadt (237m)

6-stündlich | Neueste Meldungen
Ortszeit Temperatur Wetter
Mo, 05.12. 19:00 3.6° C bewölkt
Mo, 05.12. 13:00 4.2° C leichter Regen
Mo, 05.12. 7:00 2.5° C bedeckt
Mo, 05.12. 1:00 2.8° C Nebel
So, 04.12. 19:00 2.8° C leichter Regen
So, 04.12. 13:00 2.7° C bewölkt
So, 04.12. 7:00 1.7° C bedeckt
So, 04.12. 1:00 1.0° C bedeckt
Ortszeit Temperatur Wetter
Mo, 05.12. 21:00 2.8° C bedeckt
Mo, 05.12. 20:50 2.8° C bedeckt
Mo, 05.12. 20:40 3.0° C bewölkt
Mo, 05.12. 20:30 2.8° C wolkig
Mo, 05.12. 20:20 2.8° C wolkig
Mo, 05.12. 20:10 2.8° C leicht bewölkt
Mo, 05.12. 20:00 3.3° C wolkig
Mo, 05.12. 19:30 3.6° C bedeckt
Mo, 05.12. 19:00 3.6° C bewölkt
Mo, 05.12. 18:30 3.7° C bewölkt
Mo, 05.12. 18:00 3.8° C bedeckt
Ortszeit Relative Feuchte Sichtweite
Mo, 05.12. 19:00 92% 22 km
Mo, 05.12. 13:00 93% 8 km
Mo, 05.12. 7:00 97% 2.3 km
Mo, 05.12. 1:00 98% 0.3 km
So, 04.12. 19:00 95% 11 km
So, 04.12. 13:00 91% 13 km
So, 04.12. 7:00 88% 20 km
So, 04.12. 1:00 89% 14 km
Ortszeit Relative Feuchte Sichtweite
Mo, 05.12. 21:00 96% 11 km
Mo, 05.12. 20:50 96% -
Mo, 05.12. 20:40 96% -
Mo, 05.12. 20:30 95% 21 km
Mo, 05.12. 20:20 95% -
Mo, 05.12. 20:10 94% -
Mo, 05.12. 20:00 94% 16 km
Mo, 05.12. 19:30 93% 18 km
Mo, 05.12. 19:00 92% 22 km
Mo, 05.12. 18:30 93% 16 km
Mo, 05.12. 18:00 95% 16 km
Ortszeit Niederschlagsmenge Niederschlagsart
Mo, 05.12. 19:00 1 l/m2 in 12 Std. Regen
Mo, 05.12. 13:00 0.8 l/m2 in 6 Std. Regen
Mo, 05.12. 7:00 0.3 l/m2 in 12 Std. Sprühregen
Mo, 05.12. 1:00 0.3 l/m2 in 6 Std. Regen
So, 04.12. 19:00 0.1 l/m2 in 12 Std. Regen
So, 04.12. 13:00 0.0 l/m2 in 6 Std. -
So, 04.12. 7:00 0.0 l/m2 in 12 Std. -
So, 04.12. 1:00 0.0 l/m2 in 6 Std. -
Ortszeit Niederschlagsmenge Niederschlagsart
Mo, 05.12. 21:00 0.0 l/m2 in 1 Std. -
Mo, 05.12. 20:50 keine Meldung -
Mo, 05.12. 20:40 keine Meldung -
Mo, 05.12. 20:30 0.0 l/m2 in 30 Min -
Mo, 05.12. 20:20 keine Meldung -
Mo, 05.12. 20:10 keine Meldung -
Mo, 05.12. 20:00 0.0 l/m2 in 1 Std. -
Mo, 05.12. 19:30 0.0 l/m2 in 30 Min -
Mo, 05.12. 19:00 0.0 l/m2 in 1 Std. Regen
Mo, 05.12. 18:30 0.0 l/m2 in 30 Min -
Mo, 05.12. 18:00 0.0 l/m2 in 1 Std. -
Ortszeit Stärke Spitze Richtung
km/h Bft. km/h Grad Sektor
Mo, 05.12. 19:00 7 2 18 220° SW
Mo, 05.12. 13:00 9 2 19 240° SW
Mo, 05.12. 7:00 2 1 17 150° SO
Mo, 05.12. 1:00 4 1 7 260° W
So, 04.12. 19:00 4 1 11 60° NO
So, 04.12. 13:00 7 2 25 70° O
So, 04.12. 7:00 14 3 36 90° O
So, 04.12. 1:00 14 3 32 100° O
Ortszeit Stärke Spitze Richtung
km/h Bft. km/h Grad Sektor
Mo, 05.12. 21:00 0 0 14 - -
Mo, 05.12. 20:50 2 1 - 80° O
Mo, 05.12. 20:40 4 1 - 160° S
Mo, 05.12. 20:30 4 1 14 240° SW
Mo, 05.12. 20:20 4 1 - 240° SW
Mo, 05.12. 20:10 7 2 - 240° SW
Mo, 05.12. 20:00 9 2 13 200° S
Mo, 05.12. 19:30 7 2 9 210° SW
Mo, 05.12. 19:00 7 2 11 220° SW
Mo, 05.12. 18:30 7 2 7 220° SW
Mo, 05.12. 18:00 7 2 11 250° W
Ortszeit Untergrenze Bedeckung Gattung
total tief tief mittel hoch
Mo, 05.12. 19:00 870 m 8/8 7/8 - - -
Mo, 05.12. 13:00 180 m 5/8 5/8 - - -
Mo, 05.12. 7:00 - 8/8 - - - -
Mo, 05.12. 1:00 30 m 8/8 8/8 - - -
So, 04.12. 19:00 240 m 7/8 7/8 - - -
So, 04.12. 13:00 180 m 7/8 7/8 - - -
So, 04.12. 7:00 270 m 8/8 8/8 - - -
So, 04.12. 1:00 270 m 8/8 8/8 - - -
Ortszeit Bedeckungsgrad in Achtel und Wolkenuntergrenze
Mo, 05.12. 21:00 8(1290m)
Mo, 05.12. 20:50 8(1290m)
Mo, 05.12. 20:40 7
Mo, 05.12. 20:30 5(1290m)
Mo, 05.12. 20:20 5(1290m)
Mo, 05.12. 20:10 4
Mo, 05.12. 20:00 6(1230m)
Mo, 05.12. 19:30 8(1080m)
Mo, 05.12. 19:00 1(870m) 7(1200m) 8(3000m)
Mo, 05.12. 18:30 7(1050m) 8(3000m)
Mo, 05.12. 18:00 3(630m) 4(840m) 8(1020m)
Ortszeit Luftdruck NN (hPa) Tendenz (hPa in 3 Std.)
Mo, 05.12. 19:00 1021 + 0,5
Mo, 05.12. 13:00 1020 + 0,2
Mo, 05.12. 7:00 1018 + 0,7
Mo, 05.12. 1:00 1016 + 0,9
So, 04.12. 19:00 1014 0,0
So, 04.12. 13:00 1014 - 0,6
So, 04.12. 7:00 1015 - 0,2
So, 04.12. 1:00 1016 - 0,7
Ortszeit Luftdruck NN (hPa) Tendenz (hPa in 3 Std.)
Mo, 05.12. 21:00 1021 + 0,2
Mo, 05.12. 20:50 1021 keine Meldung
Mo, 05.12. 20:40 1021 keine Meldung
Mo, 05.12. 20:30 1021 + 0,3
Mo, 05.12. 20:20 1021 keine Meldung
Mo, 05.12. 20:10 1021 keine Meldung
Mo, 05.12. 20:00 1021 + 0,2
Mo, 05.12. 19:30 1021 + 0,5
Mo, 05.12. 19:00 1021 + 0,5
Mo, 05.12. 18:30 1021 + 0,6
Mo, 05.12. 18:00 1020 + 0,7
Ortszeit Schneehöhe (cm)
Mo, 05.12. 19:00 0
Mo, 05.12. 13:00 0
Mo, 05.12. 7:00 0
Mo, 05.12. 1:00 0
So, 04.12. 19:00 0
So, 04.12. 13:00 0
So, 04.12. 7:00 0
So, 04.12. 1:00 0
Ortszeit Schneehöhe (cm)
Mo, 05.12. 21:00 0
Mo, 05.12. 20:50 0
Mo, 05.12. 20:40 0
Mo, 05.12. 20:30 0
Mo, 05.12. 20:20 0
Mo, 05.12. 20:10 0
Mo, 05.12. 20:00 0
Mo, 05.12. 19:30 0
Mo, 05.12. 19:00 0
Mo, 05.12. 18:30 0
Mo, 05.12. 18:00 0
Link zu dieser Seite / Seite empfehlen

Das Wetter in ...